sensor_id;sensor_type;location;lat;lon;timestamp;P1;durP1;ratioP1;P2;durP2;ratioP2
8247;SDS011;4164;49.844;8.830;2023-09-19T00:01:40;0.00;;;0.00;;
8247;SDS011;4164;49.844;8.830;2023-09-19T00:04:07;0.00;;;0.00;;
8247;SDS011;4164;49.844;8.830;2023-09-19T00:06:34;0.00;;;0.00;;
8247;SDS011;4164;49.844;8.830;2023-09-19T00:09:03;0.30;;;0.10;;
8247;SDS011;4164;49.844;8.830;2023-09-19T00:11:29;0.00;;;0.00;;
8247;SDS011;4164;49.844;8.830;2023-09-19T00:13:54;0.17;;;0.17;;
8247;SDS011;4164;49.844;8.830;2023-09-19T00:16:23;0.00;;;0.00;;
8247;SDS011;4164;49.844;8.830;2023-09-19T00:18:50;0.00;;;0.00;;
8247;SDS011;4164;49.844;8.830;2023-09-19T00:21:15;0.27;;;0.27;;
8247;SDS011;4164;49.844;8.830;2023-09-19T00:23:41;0.00;;;0.00;;
8247;SDS011;4164;49.844;8.830;2023-09-19T00:26:06;0.00;;;0.00;;
8247;SDS011;4164;49.844;8.830;2023-09-19T00:28:32;0.00;;;0.00;;
8247;SDS011;4164;49.844;8.830;2023-09-19T00:30:58;0.00;;;0.00;;
8247;SDS011;4164;49.844;8.830;2023-09-19T00:33:26;0.00;;;0.00;;
8247;SDS011;4164;49.844;8.830;2023-09-19T00:35:54;0.03;;;0.03;;
8247;SDS011;4164;49.844;8.830;2023-09-19T00:38:22;0.13;;;0.13;;
8247;SDS011;4164;49.844;8.830;2023-09-19T00:40:52;0.00;;;0.00;;
8247;SDS011;4164;49.844;8.830;2023-09-19T00:43:18;0.00;;;0.00;;
8247;SDS011;4164;49.844;8.830;2023-09-19T00:45:46;0.00;;;0.00;;
8247;SDS011;4164;49.844;8.830;2023-09-19T00:48:13;0.00;;;0.00;;
8247;SDS011;4164;49.844;8.830;2023-09-19T00:50:43;0.00;;;0.00;;
8247;SDS011;4164;49.844;8.830;2023-09-19T00:53:13;0.00;;;0.00;;
8247;SDS011;4164;49.844;8.830;2023-09-19T00:55:39;0.00;;;0.00;;
8247;SDS011;4164;49.844;8.830;2023-09-19T00:58:09;0.10;;;0.10;;
8247;SDS011;4164;49.844;8.830;2023-09-19T01:00:35;0.00;;;0.00;;
8247;SDS011;4164;49.844;8.830;2023-09-19T01:03:02;0.00;;;0.00;;
8247;SDS011;4164;49.844;8.830;2023-09-19T01:05:28;0.10;;;0.10;;
8247;SDS011;4164;49.844;8.830;2023-09-19T01:07:56;0.20;;;0.20;;
8247;SDS011;4164;49.844;8.830;2023-09-19T01:10:22;0.03;;;0.03;;
8247;SDS011;4164;49.844;8.830;2023-09-19T01:32:05;0.00;;;0.00;;
8247;SDS011;4164;49.844;8.830;2023-09-19T01:34:51;0.00;;;0.00;;
8247;SDS011;4164;49.844;8.830;2023-09-19T01:37:20;0.40;;;0.40;;
8247;SDS011;4164;49.844;8.830;2023-09-19T01:39:52;0.17;;;0.07;;
8247;SDS011;4164;49.844;8.830;2023-09-19T01:47:46;0.40;;;0.40;;
8247;SDS011;4164;49.844;8.830;2023-09-19T01:53:07;0.00;;;0.00;;
8247;SDS011;4164;49.844;8.830;2023-09-19T01:55:39;1999.90;;;999.90;;
8247;SDS011;4164;49.844;8.830;2023-09-19T01:58:27;1999.90;;;999.90;;
8247;SDS011;4164;49.844;8.830;2023-09-19T02:00:59;1999.90;;;999.90;;
8247;SDS011;4164;49.844;8.830;2023-09-19T02:03:25;1999.90;;;999.90;;
8247;SDS011;4164;49.844;8.830;2023-09-19T02:05:53;1999.90;;;999.90;;
8247;SDS011;4164;49.844;8.830;2023-09-19T02:08:22;0.00;;;0.00;;
8247;SDS011;4164;49.844;8.830;2023-09-19T02:10:51;1999.90;;;999.90;;
8247;SDS011;4164;49.844;8.830;2023-09-19T02:13:21;389.20;;;76.87;;
8247;SDS011;4164;49.844;8.830;2023-09-19T02:15:49;1999.90;;;999.90;;
8247;SDS011;4164;49.844;8.830;2023-09-19T02:18:15;1999.90;;;999.90;;
8247;SDS011;4164;49.844;8.830;2023-09-19T02:20:42;1999.90;;;999.90;;
8247;SDS011;4164;49.844;8.830;2023-09-19T02:23:08;1999.90;;;999.90;;
8247;SDS011;4164;49.844;8.830;2023-09-19T02:25:35;1999.90;;;999.90;;
8247;SDS011;4164;49.844;8.830;2023-09-19T02:28:01;1999.90;;;999.90;;
8247;SDS011;4164;49.844;8.830;2023-09-19T02:30:28;1999.90;;;999.90;;
8247;SDS011;4164;49.844;8.830;2023-09-19T02:32:55;1999.90;;;999.90;;
8247;SDS011;4164;49.844;8.830;2023-09-19T02:35:20;1999.90;;;999.90;;
8247;SDS011;4164;49.844;8.830;2023-09-19T02:37:46;1999.90;;;999.90;;
8247;SDS011;4164;49.844;8.830;2023-09-19T02:40:13;1999.90;;;999.90;;
8247;SDS011;4164;49.844;8.830;2023-09-19T02:42:48;1999.90;;;999.90;;
8247;SDS011;4164;49.844;8.830;2023-09-19T02:45:15;1999.90;;;999.90;;
8247;SDS011;4164;49.844;8.830;2023-09-19T02:47:42;1999.90;;;999.90;;
8247;SDS011;4164;49.844;8.830;2023-09-19T02:50:09;1999.90;;;999.90;;
8247;SDS011;4164;49.844;8.830;2023-09-19T02:52:36;1999.90;;;999.90;;
8247;SDS011;4164;49.844;8.830;2023-09-19T02:55:02;1999.90;;;999.90;;
8247;SDS011;4164;49.844;8.830;2023-09-19T02:57:29;1999.90;;;999.90;;
8247;SDS011;4164;49.844;8.830;2023-09-19T02:59:58;1999.90;;;999.90;;
8247;SDS011;4164;49.844;8.830;2023-09-19T03:02:25;1999.90;;;999.90;;
8247;SDS011;4164;49.844;8.830;2023-09-19T03:04:57;1999.90;;;999.90;;
8247;SDS011;4164;49.844;8.830;2023-09-19T03:07:25;1999.90;;;999.90;;
8247;SDS011;4164;49.844;8.830;2023-09-19T03:09:51;1999.90;;;999.90;;
8247;SDS011;4164;49.844;8.830;2023-09-19T03:12:18;1999.90;;;999.90;;
8247;SDS011;4164;49.844;8.830;2023-09-19T03:14:43;1999.90;;;999.90;;
8247;SDS011;4164;49.844;8.830;2023-09-19T03:17:09;1999.90;;;999.90;;
8247;SDS011;4164;49.844;8.830;2023-09-19T03:19:34;1999.90;;;999.90;;
8247;SDS011;4164;49.844;8.830;2023-09-19T03:22:02;1999.90;;;999.90;;
8247;SDS011;4164;49.844;8.830;2023-09-19T03:24:28;1999.90;;;999.90;;
8247;SDS011;4164;49.844;8.830;2023-09-19T03:26:54;1999.90;;;999.90;;
8247;SDS011;4164;49.844;8.830;2023-09-19T03:29:20;1999.90;;;999.90;;
8247;SDS011;4164;49.844;8.830;2023-09-19T03:31:48;1999.90;;;999.90;;
8247;SDS011;4164;49.844;8.830;2023-09-19T03:34:14;1999.90;;;999.90;;
8247;SDS011;4164;49.844;8.830;2023-09-19T03:36:39;1999.90;;;999.90;;
8247;SDS011;4164;49.844;8.830;2023-09-19T03:39:06;1999.90;;;999.90;;
8247;SDS011;4164;49.844;8.830;2023-09-19T03:41:31;1999.90;;;999.90;;
8247;SDS011;4164;49.844;8.830;2023-09-19T03:43:58;1999.90;;;999.90;;
8247;SDS011;4164;49.844;8.830;2023-09-19T03:46:24;1999.90;;;999.90;;
8247;SDS011;4164;49.844;8.830;2023-09-19T03:48:50;1999.90;;;999.90;;
8247;SDS011;4164;49.844;8.830;2023-09-19T03:51:15;1999.90;;;999.90;;
8247;SDS011;4164;49.844;8.830;2023-09-19T03:53:41;1999.90;;;999.90;;
8247;SDS011;4164;49.844;8.830;2023-09-19T03:56:07;1999.90;;;999.90;;
8247;SDS011;4164;49.844;8.830;2023-09-19T03:58:35;1999.90;;;999.90;;
8247;SDS011;4164;49.844;8.830;2023-09-19T04:01:04;1999.90;;;999.90;;
8247;SDS011;4164;49.844;8.830;2023-09-19T04:03:31;1999.90;;;999.90;;
8247;SDS011;4164;49.844;8.830;2023-09-19T04:06:10;1999.90;;;999.90;;
8247;SDS011;4164;49.844;8.830;2023-09-19T04:08:37;1999.90;;;999.90;;
8247;SDS011;4164;49.844;8.830;2023-09-19T04:11:02;1999.90;;;999.90;;
8247;SDS011;4164;49.844;8.830;2023-09-19T04:13:28;1999.90;;;999.90;;
8247;SDS011;4164;49.844;8.830;2023-09-19T04:15:53;1999.90;;;999.90;;
8247;SDS011;4164;49.844;8.830;2023-09-19T04:18:19;1999.90;;;999.90;;
8247;SDS011;4164;49.844;8.830;2023-09-19T04:20:49;1999.90;;;999.90;;
8247;SDS011;4164;49.844;8.830;2023-09-19T04:23:15;1999.90;;;999.90;;
8247;SDS011;4164;49.844;8.830;2023-09-19T04:25:41;1999.90;;;999.90;;
8247;SDS011;4164;49.844;8.830;2023-09-19T04:28:06;1999.90;;;999.90;;
8247;SDS011;4164;49.844;8.830;2023-09-19T04:30:32;1999.90;;;999.90;;
8247;SDS011;4164;49.844;8.830;2023-09-19T04:32:57;1999.90;;;999.90;;
8247;SDS011;4164;49.844;8.830;2023-09-19T04:35:24;1999.90;;;999.90;;
8247;SDS011;4164;49.844;8.830;2023-09-19T04:37:51;1999.90;;;999.90;;
8247;SDS011;4164;49.844;8.830;2023-09-19T04:40:17;1999.90;;;999.90;;
8247;SDS011;4164;49.844;8.830;2023-09-19T04:42:44;1999.90;;;999.90;;
8247;SDS011;4164;49.844;8.830;2023-09-19T04:45:11;1999.90;;;999.90;;
8247;SDS011;4164;49.844;8.830;2023-09-19T04:47:37;1999.90;;;999.90;;
8247;SDS011;4164;49.844;8.830;2023-09-19T04:50:09;1999.90;;;999.90;;
8247;SDS011;4164;49.844;8.830;2023-09-19T04:52:39;1999.90;;;999.90;;
8247;SDS011;4164;49.844;8.830;2023-09-19T04:55:07;1999.90;;;999.90;;
8247;SDS011;4164;49.844;8.830;2023-09-19T04:57:35;1999.90;;;999.90;;
8247;SDS011;4164;49.844;8.830;2023-09-19T05:00:02;1999.90;;;999.90;;
8247;SDS011;4164;49.844;8.830;2023-09-19T05:02:32;1999.90;;;999.90;;
8247;SDS011;4164;49.844;8.830;2023-09-19T05:05:00;1999.90;;;999.90;;
8247;SDS011;4164;49.844;8.830;2023-09-19T05:07:26;1999.90;;;999.90;;
8247;SDS011;4164;49.844;8.830;2023-09-19T05:09:52;1999.90;;;999.90;;
8247;SDS011;4164;49.844;8.830;2023-09-19T05:12:17;1999.90;;;999.90;;
8247;SDS011;4164;49.844;8.830;2023-09-19T05:14:44;1999.90;;;999.90;;
8247;SDS011;4164;49.844;8.830;2023-09-19T05:17:10;1999.90;;;999.90;;
8247;SDS011;4164;49.844;8.830;2023-09-19T05:19:35;1999.90;;;999.90;;
8247;SDS011;4164;49.844;8.830;2023-09-19T05:22:01;1999.90;;;999.90;;
8247;SDS011;4164;49.844;8.830;2023-09-19T05:24:29;1999.90;;;999.90;;
8247;SDS011;4164;49.844;8.830;2023-09-19T05:26:55;1999.90;;;999.90;;
8247;SDS011;4164;49.844;8.830;2023-09-19T05:29:24;1999.90;;;999.90;;
8247;SDS011;4164;49.844;8.830;2023-09-19T05:31:50;1999.90;;;999.90;;
8247;SDS011;4164;49.844;8.830;2023-09-19T05:34:16;1999.90;;;999.90;;
8247;SDS011;4164;49.844;8.830;2023-09-19T05:36:41;1999.90;;;999.90;;
8247;SDS011;4164;49.844;8.830;2023-09-19T05:39:08;1999.90;;;999.90;;
8247;SDS011;4164;49.844;8.830;2023-09-19T05:41:35;1999.90;;;999.90;;
8247;SDS011;4164;49.844;8.830;2023-09-19T05:44:02;1999.90;;;999.90;;
8247;SDS011;4164;49.844;8.830;2023-09-19T05:46:32;1999.90;;;999.90;;
8247;SDS011;4164;49.844;8.830;2023-09-19T05:48:57;1999.90;;;999.90;;
8247;SDS011;4164;49.844;8.830;2023-09-19T05:51:23;1999.90;;;999.90;;
8247;SDS011;4164;49.844;8.830;2023-09-19T05:53:49;1999.90;;;999.90;;
8247;SDS011;4164;49.844;8.830;2023-09-19T05:56:15;1999.90;;;999.90;;
8247;SDS011;4164;49.844;8.830;2023-09-19T05:58:42;1999.90;;;999.90;;
8247;SDS011;4164;49.844;8.830;2023-09-19T06:01:09;1999.90;;;999.90;;
8247;SDS011;4164;49.844;8.830;2023-09-19T06:03:35;1999.90;;;999.90;;
8247;SDS011;4164;49.844;8.830;2023-09-19T06:06:03;1999.90;;;999.90;;
8247;SDS011;4164;49.844;8.830;2023-09-19T06:08:31;1999.90;;;999.90;;
8247;SDS011;4164;49.844;8.830;2023-09-19T06:10:58;1999.90;;;999.90;;
8247;SDS011;4164;49.844;8.830;2023-09-19T06:13:24;1999.90;;;999.90;;
8247;SDS011;4164;49.844;8.830;2023-09-19T06:15:51;1999.90;;;999.90;;
8247;SDS011;4164;49.844;8.830;2023-09-19T06:18:17;1999.90;;;999.90;;
8247;SDS011;4164;49.844;8.830;2023-09-19T06:20:47;1999.90;;;999.90;;
8247;SDS011;4164;49.844;8.830;2023-09-19T06:23:16;1999.90;;;999.90;;
8247;SDS011;4164;49.844;8.830;2023-09-19T06:25:42;1999.90;;;999.90;;
8247;SDS011;4164;49.844;8.830;2023-09-19T06:28:08;1999.90;;;999.90;;
8247;SDS011;4164;49.844;8.830;2023-09-19T06:30:37;1999.90;;;999.90;;
8247;SDS011;4164;49.844;8.830;2023-09-19T06:33:06;1999.90;;;999.90;;
8247;SDS011;4164;49.844;8.830;2023-09-19T06:35:32;1999.90;;;999.90;;
8247;SDS011;4164;49.844;8.830;2023-09-19T06:37:59;1999.90;;;999.90;;
8247;SDS011;4164;49.844;8.830;2023-09-19T06:40:28;1999.90;;;999.90;;
8247;SDS011;4164;49.844;8.830;2023-09-19T06:42:56;1999.90;;;999.90;;
8247;SDS011;4164;49.844;8.830;2023-09-19T06:45:21;1999.90;;;999.90;;
8247;SDS011;4164;49.844;8.830;2023-09-19T06:47:48;1999.90;;;999.90;;
8247;SDS011;4164;49.844;8.830;2023-09-19T06:50:21;1999.90;;;999.90;;
8247;SDS011;4164;49.844;8.830;2023-09-19T06:52:51;1999.90;;;999.90;;
8247;SDS011;4164;49.844;8.830;2023-09-19T06:55:22;1999.90;;;999.90;;
8247;SDS011;4164;49.844;8.830;2023-09-19T06:57:53;1999.90;;;999.90;;
8247;SDS011;4164;49.844;8.830;2023-09-19T07:00:22;1999.90;;;999.90;;
8247;SDS011;4164;49.844;8.830;2023-09-19T07:03:01;1999.90;;;999.90;;
8247;SDS011;4164;49.844;8.830;2023-09-19T07:05:29;1999.90;;;999.90;;
8247;SDS011;4164;49.844;8.830;2023-09-19T07:07:56;1999.90;;;999.90;;
8247;SDS011;4164;49.844;8.830;2023-09-19T07:10:29;1999.90;;;999.90;;
8247;SDS011;4164;49.844;8.830;2023-09-19T07:12:59;1999.90;;;999.90;;
8247;SDS011;4164;49.844;8.830;2023-09-19T07:15:25;1999.90;;;999.90;;
8247;SDS011;4164;49.844;8.830;2023-09-19T07:17:52;1999.90;;;999.90;;
8247;SDS011;4164;49.844;8.830;2023-09-19T07:20:18;1999.90;;;999.90;;
8247;SDS011;4164;49.844;8.830;2023-09-19T07:22:44;1999.90;;;999.90;;
8247;SDS011;4164;49.844;8.830;2023-09-19T07:25:10;1999.90;;;999.90;;
8247;SDS011;4164;49.844;8.830;2023-09-19T07:27:39;1999.90;;;999.90;;
8247;SDS011;4164;49.844;8.830;2023-09-19T07:30:06;1999.90;;;999.90;;
8247;SDS011;4164;49.844;8.830;2023-09-19T07:32:33;1999.90;;;999.90;;
8247;SDS011;4164;49.844;8.830;2023-09-19T07:35:01;1999.90;;;999.90;;
8247;SDS011;4164;49.844;8.830;2023-09-19T07:37:28;1999.90;;;999.90;;
8247;SDS011;4164;49.844;8.830;2023-09-19T07:39:56;1999.90;;;999.90;;
8247;SDS011;4164;49.844;8.830;2023-09-19T07:42:21;1999.90;;;999.90;;
8247;SDS011;4164;49.844;8.830;2023-09-19T07:44:47;1999.90;;;999.90;;
8247;SDS011;4164;49.844;8.830;2023-09-19T07:47:15;1999.90;;;999.90;;
8247;SDS011;4164;49.844;8.830;2023-09-19T07:49:41;1.07;;;1.07;;
8247;SDS011;4164;49.844;8.830;2023-09-19T07:52:07;1999.90;;;999.90;;
8247;SDS011;4164;49.844;8.830;2023-09-19T07:54:34;1999.90;;;999.90;;
8247;SDS011;4164;49.844;8.830;2023-09-19T07:57:00;1999.90;;;999.90;;
8247;SDS011;4164;49.844;8.830;2023-09-19T07:59:29;1999.90;;;999.90;;
8247;SDS011;4164;49.844;8.830;2023-09-19T08:01:55;1999.90;;;999.90;;
8247;SDS011;4164;49.844;8.830;2023-09-19T08:04:20;1999.90;;;999.90;;
8247;SDS011;4164;49.844;8.830;2023-09-19T08:06:46;1999.90;;;999.90;;
8247;SDS011;4164;49.844;8.830;2023-09-19T08:09:11;1999.90;;;999.90;;
8247;SDS011;4164;49.844;8.830;2023-09-19T08:11:41;1999.90;;;999.90;;
8247;SDS011;4164;49.844;8.830;2023-09-19T08:14:06;1999.90;;;999.90;;
8247;SDS011;4164;49.844;8.830;2023-09-19T08:16:33;1999.90;;;999.90;;
8247;SDS011;4164;49.844;8.830;2023-09-19T08:18:59;1999.90;;;999.90;;
8247;SDS011;4164;49.844;8.830;2023-09-19T08:21:24;1999.90;;;999.90;;
8247;SDS011;4164;49.844;8.830;2023-09-19T08:23:52;1999.90;;;999.90;;
8247;SDS011;4164;49.844;8.830;2023-09-19T08:26:18;1999.90;;;999.90;;
8247;SDS011;4164;49.844;8.830;2023-09-19T08:28:44;1999.90;;;999.90;;
8247;SDS011;4164;49.844;8.830;2023-09-19T08:31:13;1999.90;;;999.90;;
8247;SDS011;4164;49.844;8.830;2023-09-19T08:33:39;1999.90;;;999.90;;
8247;SDS011;4164;49.844;8.830;2023-09-19T08:36:06;0.00;;;0.00;;
8247;SDS011;4164;49.844;8.830;2023-09-19T08:38:34;0.20;;;0.20;;
8247;SDS011;4164;49.844;8.830;2023-09-19T08:41:00;0.00;;;0.00;;
8247;SDS011;4164;49.844;8.830;2023-09-19T08:43:30;0.00;;;0.00;;
8247;SDS011;4164;49.844;8.830;2023-09-19T08:45:58;0.00;;;0.00;;
8247;SDS011;4164;49.844;8.830;2023-09-19T08:48:45;0.77;;;0.27;;
8247;SDS011;4164;49.844;8.830;2023-09-19T08:51:34;0.00;;;0.00;;
8247;SDS011;4164;49.844;8.830;2023-09-19T08:56:51;0.03;;;0.03;;
8247;SDS011;4164;49.844;8.830;2023-09-19T08:59:22;0.03;;;0.03;;
8247;SDS011;4164;49.844;8.830;2023-09-19T09:01:52;0.30;;;0.23;;
8247;SDS011;4164;49.844;8.830;2023-09-19T09:04:19;0.00;;;0.00;;
8247;SDS011;4164;49.844;8.830;2023-09-19T09:06:45;0.00;;;0.00;;
8247;SDS011;4164;49.844;8.830;2023-09-19T09:09:14;0.00;;;0.00;;
8247;SDS011;4164;49.844;8.830;2023-09-19T09:11:40;0.00;;;0.00;;
8247;SDS011;4164;49.844;8.830;2023-09-19T09:14:06;0.10;;;0.10;;
8247;SDS011;4164;49.844;8.830;2023-09-19T09:16:34;0.10;;;0.10;;
8247;SDS011;4164;49.844;8.830;2023-09-19T09:19:00;0.00;;;0.00;;
8247;SDS011;4164;49.844;8.830;2023-09-19T09:21:26;0.00;;;0.00;;
8247;SDS011;4164;49.844;8.830;2023-09-19T09:23:53;0.00;;;0.00;;
8247;SDS011;4164;49.844;8.830;2023-09-19T09:27:02;0.13;;;0.13;;
8247;SDS011;4164;49.844;8.830;2023-09-19T09:29:08;0.30;;;0.20;;
8247;SDS011;4164;49.844;8.830;2023-09-19T09:31:34;0.10;;;0.10;;
8247;SDS011;4164;49.844;8.830;2023-09-19T09:33:59;0.00;;;0.00;;
8247;SDS011;4164;49.844;8.830;2023-09-19T09:36:38;0.00;;;0.00;;
8247;SDS011;4164;49.844;8.830;2023-09-19T09:39:06;0.00;;;0.00;;
8247;SDS011;4164;49.844;8.830;2023-09-19T09:41:44;0.00;;;0.00;;
8247;SDS011;4164;49.844;8.830;2023-09-19T09:44:14;0.00;;;0.00;;
8247;SDS011;4164;49.844;8.830;2023-09-19T09:46:44;0.00;;;0.00;;
8247;SDS011;4164;49.844;8.830;2023-09-19T09:49:39;0.37;;;0.20;;
8247;SDS011;4164;49.844;8.830;2023-09-19T09:52:05;1.60;;;0.47;;
8247;SDS011;4164;49.844;8.830;2023-09-19T09:54:34;0.03;;;0.03;;
8247;SDS011;4164;49.844;8.830;2023-09-19T09:57:04;0.00;;;0.00;;
8247;SDS011;4164;49.844;8.830;2023-09-19T10:02:26;0.20;;;0.20;;
8247;SDS011;4164;49.844;8.830;2023-09-19T10:05:10;0.47;;;0.20;;
8247;SDS011;4164;49.844;8.830;2023-09-19T10:07:47;0.10;;;0.10;;
8247;SDS011;4164;49.844;8.830;2023-09-19T10:13:06;0.33;;;0.33;;
8247;SDS011;4164;49.844;8.830;2023-09-19T10:15:33;1.70;;;0.50;;
8247;SDS011;4164;49.844;8.830;2023-09-19T10:18:01;0.00;;;0.00;;
8247;SDS011;4164;49.844;8.830;2023-09-19T10:20:30;0.20;;;0.10;;
8247;SDS011;4164;49.844;8.830;2023-09-19T10:23:00;0.00;;;0.00;;
8247;SDS011;4164;49.844;8.830;2023-09-19T10:25:36;0.00;;;0.00;;
8247;SDS011;4164;49.844;8.830;2023-09-19T10:28:03;0.00;;;0.00;;
8247;SDS011;4164;49.844;8.830;2023-09-19T10:30:36;0.00;;;0.00;;
8247;SDS011;4164;49.844;8.830;2023-09-19T10:33:16;0.00;;;0.00;;
8247;SDS011;4164;49.844;8.830;2023-09-19T10:35:44;0.00;;;0.00;;
8247;SDS011;4164;49.844;8.830;2023-09-19T10:38:11;0.00;;;0.00;;
8247;SDS011;4164;49.844;8.830;2023-09-19T10:40:44;0.07;;;0.07;;
8247;SDS011;4164;49.844;8.830;2023-09-19T10:43:15;0.00;;;0.00;;
8247;SDS011;4164;49.844;8.830;2023-09-19T10:45:43;0.10;;;0.10;;
8247;SDS011;4164;49.844;8.830;2023-09-19T10:48:11;0.00;;;0.00;;
8247;SDS011;4164;49.844;8.830;2023-09-19T10:50:48;0.00;;;0.00;;
8247;SDS011;4164;49.844;8.830;2023-09-19T10:53:42;0.00;;;0.00;;
8247;SDS011;4164;49.844;8.830;2023-09-19T10:56:26;0.10;;;0.10;;
8247;SDS011;4164;49.844;8.830;2023-09-19T11:01:41;0.00;;;0.00;;
8247;SDS011;4164;49.844;8.830;2023-09-19T11:04:34;0.20;;;0.20;;
8247;SDS011;4164;49.844;8.830;2023-09-19T11:09:52;0.20;;;0.20;;
8247;SDS011;4164;49.844;8.830;2023-09-19T11:14:57;0.00;;;0.00;;
8247;SDS011;4164;49.844;8.830;2023-09-19T11:17:31;0.17;;;0.17;;
8247;SDS011;4164;49.844;8.830;2023-09-19T11:30:42;0.07;;;0.07;;
8247;SDS011;4164;49.844;8.830;2023-09-19T11:33:16;0.00;;;0.00;;
8247;SDS011;4164;49.844;8.830;2023-09-19T11:46:51;0.00;;;0.00;;
8247;SDS011;4164;49.844;8.830;2023-09-19T11:49:26;0.20;;;0.20;;
8247;SDS011;4164;49.844;8.830;2023-09-19T11:52:00;0.00;;;0.00;;
8247;SDS011;4164;49.844;8.830;2023-09-19T11:54:27;0.23;;;0.00;;
8247;SDS011;4164;49.844;8.830;2023-09-19T11:56:56;0.10;;;0.10;;
8247;SDS011;4164;49.844;8.830;2023-09-19T11:59:24;0.00;;;0.00;;
8247;SDS011;4164;49.844;8.830;2023-09-19T12:02:01;0.00;;;0.00;;
8247;SDS011;4164;49.844;8.830;2023-09-19T12:04:34;0.00;;;0.00;;
8247;SDS011;4164;49.844;8.830;2023-09-19T12:07:04;0.00;;;0.00;;
8247;SDS011;4164;49.844;8.830;2023-09-19T12:09:35;0.10;;;0.10;;
8247;SDS011;4164;49.844;8.830;2023-09-19T12:12:03;1.03;;;0.77;;
8247;SDS011;4164;49.844;8.830;2023-09-19T12:14:29;0.00;;;0.00;;
8247;SDS011;4164;49.844;8.830;2023-09-19T12:16:56;0.33;;;0.33;;
8247;SDS011;4164;49.844;8.830;2023-09-19T12:19:23;0.30;;;0.10;;
8247;SDS011;4164;49.844;8.830;2023-09-19T12:22:02;0.10;;;0.10;;
8247;SDS011;4164;49.844;8.830;2023-09-19T12:24:32;0.00;;;0.00;;
8247;SDS011;4164;49.844;8.830;2023-09-19T12:27:04;0.10;;;0.10;;
8247;SDS011;4164;49.844;8.830;2023-09-19T12:29:31;0.00;;;0.00;;
8247;SDS011;4164;49.844;8.830;2023-09-19T12:32:06;0.10;;;0.10;;
8247;SDS011;4164;49.844;8.830;2023-09-19T12:34:32;0.27;;;0.20;;
8247;SDS011;4164;49.844;8.830;2023-09-19T12:37:05;0.03;;;0.03;;
8247;SDS011;4164;49.844;8.830;2023-09-19T12:39:46;0.03;;;0.03;;
8247;SDS011;4164;49.844;8.830;2023-09-19T12:42:18;0.00;;;0.00;;
8247;SDS011;4164;49.844;8.830;2023-09-19T12:44:48;0.00;;;0.00;;
8247;SDS011;4164;49.844;8.830;2023-09-19T12:47:22;0.10;;;0.10;;
8247;SDS011;4164;49.844;8.830;2023-09-19T12:52:46;0.00;;;0.00;;
8247;SDS011;4164;49.844;8.830;2023-09-19T12:55:23;0.47;;;0.10;;
8247;SDS011;4164;49.844;8.830;2023-09-19T13:00:33;0.77;;;0.20;;
8247;SDS011;4164;49.844;8.830;2023-09-19T13:06:00;0.00;;;0.00;;
8247;SDS011;4164;49.844;8.830;2023-09-19T13:08:31;0.23;;;0.23;;
8247;SDS011;4164;49.844;8.830;2023-09-19T13:16:10;0.03;;;0.03;;
8247;SDS011;4164;49.844;8.830;2023-09-19T13:18:47;0.00;;;0.00;;
8247;SDS011;4164;49.844;8.830;2023-09-19T13:21:26;0.00;;;0.00;;
8247;SDS011;4164;49.844;8.830;2023-09-19T13:24:23;0.00;;;0.00;;
8247;SDS011;4164;49.844;8.830;2023-09-19T13:26:54;0.10;;;0.10;;
8247;SDS011;4164;49.844;8.830;2023-09-19T13:29:19;0.23;;;0.23;;
8247;SDS011;4164;49.844;8.830;2023-09-19T13:31:48;0.00;;;0.00;;
8247;SDS011;4164;49.844;8.830;2023-09-19T13:34:15;0.03;;;0.03;;
8247;SDS011;4164;49.844;8.830;2023-09-19T13:36:42;0.00;;;0.00;;
8247;SDS011;4164;49.844;8.830;2023-09-19T13:39:08;0.00;;;0.00;;
8247;SDS011;4164;49.844;8.830;2023-09-19T13:41:34;0.00;;;0.00;;
8247;SDS011;4164;49.844;8.830;2023-09-19T13:44:01;0.20;;;0.20;;
8247;SDS011;4164;49.844;8.830;2023-09-19T13:46:30;0.20;;;0.17;;
8247;SDS011;4164;49.844;8.830;2023-09-19T13:48:58;0.10;;;0.10;;
8247;SDS011;4164;49.844;8.830;2023-09-19T13:51:24;0.20;;;0.20;;
8247;SDS011;4164;49.844;8.830;2023-09-19T13:53:51;0.63;;;0.20;;
8247;SDS011;4164;49.844;8.830;2023-09-19T13:56:16;0.00;;;0.00;;
8247;SDS011;4164;49.844;8.830;2023-09-19T13:58:42;0.00;;;0.00;;
8247;SDS011;4164;49.844;8.830;2023-09-19T14:01:08;0.00;;;0.00;;
8247;SDS011;4164;49.844;8.830;2023-09-19T14:03:38;0.00;;;0.00;;
8247;SDS011;4164;49.844;8.830;2023-09-19T14:06:07;0.00;;;0.00;;
8247;SDS011;4164;49.844;8.830;2023-09-19T14:08:32;0.00;;;0.00;;
8247;SDS011;4164;49.844;8.830;2023-09-19T14:10:59;0.03;;;0.03;;
8247;SDS011;4164;49.844;8.830;2023-09-19T14:13:30;0.00;;;0.00;;
8247;SDS011;4164;49.844;8.830;2023-09-19T14:15:56;0.10;;;0.10;;
8247;SDS011;4164;49.844;8.830;2023-09-19T14:18:21;0.20;;;0.20;;
8247;SDS011;4164;49.844;8.830;2023-09-19T14:20:47;0.00;;;0.00;;
8247;SDS011;4164;49.844;8.830;2023-09-19T14:23:12;0.20;;;0.20;;
8247;SDS011;4164;49.844;8.830;2023-09-19T14:25:38;0.00;;;0.00;;
8247;SDS011;4164;49.844;8.830;2023-09-19T14:28:04;0.00;;;0.00;;
8247;SDS011;4164;49.844;8.830;2023-09-19T14:30:32;0.00;;;0.00;;
8247;SDS011;4164;49.844;8.830;2023-09-19T14:32:58;0.00;;;0.00;;
8247;SDS011;4164;49.844;8.830;2023-09-19T14:35:23;0.00;;;0.00;;
8247;SDS011;4164;49.844;8.830;2023-09-19T14:37:50;0.00;;;0.00;;
8247;SDS011;4164;49.844;8.830;2023-09-19T14:40:16;0.00;;;0.00;;
8247;SDS011;4164;49.844;8.830;2023-09-19T14:42:42;0.00;;;0.00;;
8247;SDS011;4164;49.844;8.830;2023-09-19T14:45:11;0.00;;;0.00;;
8247;SDS011;4164;49.844;8.830;2023-09-19T14:47:36;0.00;;;0.00;;
8247;SDS011;4164;49.844;8.830;2023-09-19T14:50:03;0.10;;;0.10;;
8247;SDS011;4164;49.844;8.830;2023-09-19T14:52:31;0.00;;;0.00;;
8247;SDS011;4164;49.844;8.830;2023-09-19T14:55:01;0.00;;;0.00;;
8247;SDS011;4164;49.844;8.830;2023-09-19T14:57:26;0.37;;;0.33;;
8247;SDS011;4164;49.844;8.830;2023-09-19T14:59:52;0.00;;;0.00;;
8247;SDS011;4164;49.844;8.830;2023-09-19T15:02:18;0.00;;;0.00;;
8247;SDS011;4164;49.844;8.830;2023-09-19T15:04:44;0.00;;;0.00;;
8247;SDS011;4164;49.844;8.830;2023-09-19T15:07:12;0.30;;;0.30;;
8247;SDS011;4164;49.844;8.830;2023-09-19T15:09:39;0.00;;;0.00;;
8247;SDS011;4164;49.844;8.830;2023-09-19T15:12:06;0.00;;;0.00;;
8247;SDS011;4164;49.844;8.830;2023-09-19T15:14:32;0.10;;;0.10;;
8247;SDS011;4164;49.844;8.830;2023-09-19T15:16:57;0.00;;;0.00;;
8247;SDS011;4164;49.844;8.830;2023-09-19T15:19:25;0.00;;;0.00;;
8247;SDS011;4164;49.844;8.830;2023-09-19T15:21:51;0.00;;;0.00;;
8247;SDS011;4164;49.844;8.830;2023-09-19T15:24:17;0.00;;;0.00;;
8247;SDS011;4164;49.844;8.830;2023-09-19T15:26:43;0.10;;;0.10;;
8247;SDS011;4164;49.844;8.830;2023-09-19T15:29:09;0.43;;;0.20;;
8247;SDS011;4164;49.844;8.830;2023-09-19T15:31:35;0.10;;;0.10;;
8247;SDS011;4164;49.844;8.830;2023-09-19T15:34:02;0.00;;;0.00;;
8247;SDS011;4164;49.844;8.830;2023-09-19T15:36:28;0.00;;;0.00;;
8247;SDS011;4164;49.844;8.830;2023-09-19T15:38:58;0.00;;;0.00;;
8247;SDS011;4164;49.844;8.830;2023-09-19T15:41:32;0.03;;;0.00;;
8247;SDS011;4164;49.844;8.830;2023-09-19T15:44:04;0.00;;;0.00;;
8247;SDS011;4164;49.844;8.830;2023-09-19T15:46:37;0.00;;;0.00;;
8247;SDS011;4164;49.844;8.830;2023-09-19T15:49:03;0.00;;;0.00;;
8247;SDS011;4164;49.844;8.830;2023-09-19T15:51:29;0.00;;;0.00;;
8247;SDS011;4164;49.844;8.830;2023-09-19T15:53:56;0.10;;;0.10;;
8247;SDS011;4164;49.844;8.830;2023-09-19T15:56:22;0.87;;;0.03;;
8247;SDS011;4164;49.844;8.830;2023-09-19T15:58:52;0.00;;;0.00;;
8247;SDS011;4164;49.844;8.830;2023-09-19T16:01:20;0.00;;;0.00;;
8247;SDS011;4164;49.844;8.830;2023-09-19T16:03:47;0.00;;;0.00;;
8247;SDS011;4164;49.844;8.830;2023-09-19T16:06:15;0.10;;;0.10;;
8247;SDS011;4164;49.844;8.830;2023-09-19T16:08:46;0.00;;;0.00;;
8247;SDS011;4164;49.844;8.830;2023-09-19T16:11:13;0.00;;;0.00;;
8247;SDS011;4164;49.844;8.830;2023-09-19T16:13:40;0.00;;;0.00;;